Time;durP1;ratioP1;P1;durP2;ratioP2;P2;SDS_P1;SDS_P2;PMS_P1;PMS_P2;Temp;Humidity;BMP_temperature;BMP_pressure;BME280_temperature;BME280_humidity;BME280_pressure;Samples;Min_cycle;Max_cycle;Signal;HPM_P1;HPM_P2
2022/08/02 00:00:34;;;;;;;4.47;1.60;;;13.80;99.90;;;;;;5053767;28;20236;-58
2022/08/02 00:03:03;;;;;;;2.87;1.80;;;13.80;99.90;;;;;;5054209;28;20584;-59
2022/08/02 00:05:31;;;;;;;2.83;1.70;;;13.80;99.90;;;;;;5054082;28;20600;-57
2022/08/02 00:07:59;;;;;;;4.23;2.00;;;13.80;99.90;;;;;;5054238;28;20230;-59
2022/08/02 00:10:27;;;;;;;3.93;1.97;;;13.80;99.90;;;;;;5053963;28;20281;-59
2022/08/02 00:12:57;;;;;;;5.30;1.80;;;13.80;99.90;;;;;;5054337;28;20310;-59
2022/08/02 00:15:27;;;;;;;4.40;1.60;;;13.70;99.90;;;;;;5053684;28;20764;-56
2022/08/02 00:17:55;;;;;;;5.07;2.17;;;13.70;99.90;;;;;;5053963;28;20223;-59
2022/08/02 00:20:23;;;;;;;6.37;2.00;;;13.70;99.90;;;;;;5054237;28;20227;-59
2022/08/02 00:22:51;;;;;;;3.50;1.50;;;13.70;99.90;;;;;;5059317;28;20245;-59
2022/08/02 00:25:20;;;;;;;4.47;1.87;;;13.70;99.90;;;;;;5054026;28;20219;-59
2022/08/02 00:27:48;;;;;;;4.63;1.70;;;13.60;99.90;;;;;;5053666;28;20308;-59
2022/08/02 00:30:16;;;;;;;2.97;1.70;;;13.60;99.90;;;;;;5053219;28;20716;-57
2022/08/02 00:32:45;;;;;;;2.97;1.57;;;13.60;99.90;;;;;;5053585;28;20314;-58
2022/08/02 00:35:14;;;;;;;2.90;1.67;;;13.60;99.90;;;;;;5053307;28;20224;-58
2022/08/02 00:37:42;;;;;;;3.93;1.80;;;13.50;99.90;;;;;;5053717;28;20619;-58
2022/08/02 00:40:11;;;;;;;3.87;1.70;;;13.50;99.90;;;;;;5053591;28;20281;-58
2022/08/02 00:42:40;;;;;;;3.37;1.77;;;13.50;99.90;;;;;;5053197;28;20269;-58
2022/08/02 00:45:09;;;;;;;4.63;1.87;;;13.50;99.90;;;;;;5053524;28;20322;-58
2022/08/02 00:47:37;;;;;;;9.03;3.17;;;13.40;99.90;;;;;;5053615;28;20310;-57
2022/08/02 00:50:07;;;;;;;3.00;1.60;;;13.40;99.90;;;;;;5053494;28;20262;-58
2022/08/02 00:52:35;;;;;;;3.90;1.90;;;13.40;99.90;;;;;;5057414;28;20231;-58
2022/08/02 00:55:04;;;;;;;5.53;1.97;;;13.40;99.90;;;;;;5053831;28;20240;-58
2022/08/02 00:57:32;;;;;;;4.33;1.80;;;13.30;99.90;;;;;;5053185;28;20242;-58
2022/08/02 01:00:00;;;;;;;4.07;1.70;;;13.30;99.90;;;;;;5052967;28;20314;-58
2022/08/02 01:02:28;;;;;;;5.87;2.00;;;13.30;99.90;;;;;;5052619;28;20690;-58
2022/08/02 01:04:57;;;;;;;3.03;1.80;;;13.30;99.90;;;;;;5052807;28;20315;-59
2022/08/02 01:07:26;;;;;;;3.23;2.20;;;13.20;99.90;;;;;;5053108;28;20235;-57
2022/08/02 01:09:54;;;;;;;3.67;1.93;;;13.20;99.90;;;;;;5053348;28;20723;-58
2022/08/02 01:12:23;;;;;;;4.87;2.00;;;13.20;99.90;;;;;;5053328;28;20239;-58
2022/08/02 01:14:52;;;;;;;4.47;2.17;;;13.20;99.90;;;;;;5052989;28;20266;-58
2022/08/02 01:17:28;;;;;;;3.30;2.40;;;13.20;99.90;;;;;;5052812;28;20228;-58
2022/08/02 01:20:04;;;;;;;5.90;2.17;;;13.20;99.90;;;;;;5052086;28;20282;-59
2022/08/02 01:22:55;;;;;;;3.03;1.80;;;13.20;99.90;;;;;;5056393;28;20689;-58
2022/08/02 01:26:00;;;;;;;2.70;2.00;;;13.20;99.90;;;;;;5047436;28;20241;-58
2022/08/02 01:28:36;;;;;;;3.00;1.90;;;13.10;99.90;;;;;;5052268;28;20243;-58
2022/08/02 01:31:12;;;;;;;3.47;2.00;;;13.10;99.90;;;;;;5052221;28;20281;-58
2022/08/02 01:33:45;;;;;;;6.57;2.10;;;13.10;99.90;;;;;;5052343;28;20226;-58
2022/08/02 01:36:15;;;;;;;4.30;2.43;;;13.10;99.90;;;;;;5045159;28;20304;-58
2022/08/02 01:38:48;;;;;;;4.77;1.80;;;13.10;99.90;;;;;;5052348;28;20288;-57
2022/08/02 01:41:19;;;;;;;4.27;2.00;;;13.00;99.90;;;;;;5052650;28;20235;-58
2022/08/02 01:43:51;;;;;;;4.50;2.20;;;13.00;99.90;;;;;;5052711;28;20697;-58
2022/08/02 01:46:21;;;;;;;6.53;2.40;;;13.00;99.90;;;;;;5052893;28;20716;-58
2022/08/02 01:48:53;;;;;;;5.30;1.97;;;12.90;99.90;;;;;;5056595;28;20273;-59
2022/08/02 01:52:20;;;;;;;2.10;1.80;;;12.90;99.90;;;;;;5057128;28;20227;-59
2022/08/02 01:54:15;;;;;;;2.63;1.70;;;12.90;99.90;;;;;;5061438;28;20235;-58
2022/08/02 01:56:45;;;;;;;3.97;1.80;;;12.80;99.90;;;;;;5056560;28;20713;-59
2022/08/02 01:59:20;;;;;;;2.77;1.87;;;12.80;99.90;;;;;;5056698;28;20584;-59
2022/08/02 02:01:51;;;;;;;6.17;2.10;;;12.80;99.90;;;;;;5055676;28;20242;-59
2022/08/02 02:04:21;;;;;;;2.77;1.80;;;12.80;99.90;;;;;;5056502;28;20235;-59
2022/08/02 02:06:50;;;;;;;4.13;2.20;;;12.80;99.90;;;;;;5056395;28;20284;-59
2022/08/02 02:09:19;;;;;;;2.43;1.80;;;12.80;99.90;;;;;;5056390;28;20255;-58
2022/08/02 02:11:49;;;;;;;2.93;1.73;;;12.80;99.90;;;;;;5056313;28;20587;-58
2022/08/02 02:14:40;;;;;;;4.63;2.00;;;12.70;99.90;;;;;;5056098;28;20316;-59
2022/08/02 02:17:20;;;;;;;3.70;1.87;;;12.70;99.90;;;;;;5056114;28;20259;-59
2022/08/02 02:20:12;;;;;;;3.90;1.93;;;12.70;99.90;;;;;;5056768;28;20335;-59
2022/08/02 02:22:41;;;;;;;3.60;2.10;;;12.70;99.90;;;;;;5060917;28;20266;-59
2022/08/02 02:25:11;;;;;;;3.90;1.90;;;12.70;99.90;;;;;;5047749;28;20229;-59
2022/08/02 02:27:48;;;;;;;2.90;2.10;;;12.60;99.90;;;;;;5056295;28;20265;-59
2022/08/02 02:30:18;;;;;;;3.07;2.13;;;12.60;99.90;;;;;;5055542;28;20258;-58
2022/08/02 02:32:50;;;;;;;3.57;2.23;;;12.60;99.90;;;;;;5056573;28;20289;-58
2022/08/02 02:35:21;;;;;;;5.00;2.33;;;12.60;99.90;;;;;;5056318;28;20634;-59
2022/08/02 02:37:51;;;;;;;3.73;2.30;;;12.50;99.90;;;;;;5056840;28;20247;-59
2022/08/02 02:40:20;;;;;;;3.30;2.10;;;12.50;99.90;;;;;;5057009;28;20313;-58
2022/08/02 02:42:50;;;;;;;6.10;2.40;;;12.50;99.90;;;;;;5056702;28;20317;-58
2022/08/02 02:45:21;;;;;;;4.13;2.27;;;12.50;99.90;;;;;;5057883;28;20752;-59
2022/08/02 02:47:50;;;;;;;4.30;2.07;;;12.50;99.90;;;;;;5056902;28;20333;-59
2022/08/02 02:50:20;;;;;;;2.87;2.20;;;12.40;99.90;;;;;;5064271;28;20251;-70
2022/08/02 02:52:49;;;;;;;5.17;2.17;;;12.40;99.90;;;;;;5070892;28;20230;-65
2022/08/02 02:55:18;;;;;;;4.93;2.60;;;12.50;99.90;;;;;;5065457;28;20246;-64
2022/08/02 02:57:46;;;;;;;3.27;2.20;;;12.40;99.90;;;;;;5064798;28;20365;-58
2022/08/02 03:00:15;;;;;;;5.00;2.30;;;12.40;99.90;;;;;;5066081;28;20231;-66
2022/08/02 03:02:45;;;;;;;6.50;2.43;;;12.40;99.90;;;;;;5064500;28;20249;-58
2022/08/02 03:05:14;;;;;;;6.20;2.87;;;12.40;99.90;;;;;;5063584;28;20291;-64
2022/08/02 03:07:42;;;;;;;4.90;2.77;;;12.40;99.90;;;;;;5063753;28;20298;-60
2022/08/02 03:10:11;;;;;;;5.77;3.10;;;12.40;99.90;;;;;;5063538;28;20295;-68
2022/08/02 03:12:39;;;;;;;3.10;2.60;;;12.40;99.90;;;;;;5063397;28;20760;-62
2022/08/02 03:15:08;;;;;;;4.13;2.70;;;12.40;99.90;;;;;;5063993;28;20326;-60
2022/08/02 03:17:40;;;;;;;4.80;2.60;;;12.40;99.90;;;;;;5061962;28;20679;-59
2022/08/02 03:20:13;;;;;;;5.57;3.00;;;12.40;99.90;;;;;;5059037;28;20694;-59
2022/08/02 03:22:41;;;;;;;5.50;3.00;;;12.40;99.90;;;;;;5060936;28;20722;-59
2022/08/02 03:25:11;;;;;;;5.47;3.10;;;12.40;99.90;;;;;;5036241;28;20750;-59
2022/08/02 03:27:39;;;;;;;6.03;2.83;;;12.40;99.90;;;;;;5035820;28;20228;-59
2022/08/02 03:30:10;;;;;;;5.27;3.00;;;12.40;99.90;;;;;;5035509;28;20234;-59
2022/08/02 03:32:40;;;;;;;4.70;2.93;;;12.40;99.90;;;;;;5039905;28;20733;-59
2022/08/02 03:35:13;;;;;;;3.80;3.17;;;12.40;99.90;;;;;;5054823;28;20230;-59
2022/08/02 03:37:46;;;;;;;6.77;3.17;;;12.40;99.90;;;;;;5054994;28;20234;-58
2022/08/02 03:40:15;;;;;;;3.47;3.10;;;12.40;99.90;;;;;;5054696;28;20305;-59
2022/08/02 03:42:44;;;;;;;4.13;2.63;;;12.40;99.90;;;;;;5054721;28;20282;-59
2022/08/02 03:45:13;;;;;;;4.23;2.90;;;12.30;99.90;;;;;;5054652;28;20268;-59
2022/08/02 03:47:42;;;;;;;5.17;3.00;;;12.30;99.90;;;;;;5054706;28;20637;-59
2022/08/02 03:50:13;;;;;;;5.40;3.00;;;12.30;99.90;;;;;;5055008;28;20565;-59
2022/08/02 03:52:42;;;;;;;6.23;3.53;;;12.30;99.90;;;;;;5059416;28;20300;-59
2022/08/02 03:55:11;;;;;;;5.03;3.03;;;12.30;99.90;;;;;;5046054;28;20235;-59
2022/08/02 03:57:40;;;;;;;5.33;3.40;;;12.30;99.90;;;;;;5054242;28;20317;-59
2022/08/02 04:00:11;;;;;;;3.83;3.33;;;12.20;99.90;;;;;;5054216;28;20258;-59
2022/08/02 04:02:39;;;;;;;6.43;3.90;;;12.30;99.90;;;;;;5053828;28;20231;-58
2022/08/02 04:05:08;;;;;;;6.73;3.20;;;12.20;99.90;;;;;;5053832;28;20238;-59
2022/08/02 04:07:38;;;;;;;4.70;3.40;;;12.20;99.90;;;;;;5054232;28;20227;-58
2022/08/02 04:10:26;;;;;;;4.67;3.20;;;12.20;99.90;;;;;;5053469;28;20231;-56
2022/08/02 04:12:55;;;;;;;4.27;3.57;;;12.20;99.90;;;;;;5035252;28;20314;-59
2022/08/02 04:15:24;;;;;;;5.07;3.90;;;12.20;99.90;;;;;;5034172;28;20258;-58
2022/08/02 04:17:56;;;;;;;5.03;3.40;;;12.20;99.90;;;;;;5034478;28;20639;-58
2022/08/02 04:20:28;;;;;;;5.00;3.40;;;12.20;99.90;;;;;;5034174;28;20235;-58
2022/08/02 04:23:01;;;;;;;5.43;3.87;;;12.20;99.90;;;;;;5045711;28;20240;-58
2022/08/02 04:25:31;;;;;;;6.57;3.63;;;12.20;99.90;;;;;;5054003;28;20276;-58
2022/08/02 04:28:08;;;;;;;4.80;3.27;;;12.20;99.90;;;;;;5053737;28;20238;-58
2022/08/02 04:30:46;;;;;;;5.97;3.60;;;12.20;99.90;;;;;;5042042;28;20663;-58
2022/08/02 04:33:16;;;;;;;4.37;3.27;;;12.20;99.90;;;;;;5053584;28;20226;-59
2022/08/02 04:35:45;;;;;;;6.83;3.50;;;12.20;99.90;;;;;;5053450;28;20333;-58
2022/08/02 04:38:15;;;;;;;5.57;3.77;;;12.20;99.90;;;;;;5053934;28;20238;-58
2022/08/02 04:40:51;;;;;;;4.40;3.50;;;12.20;99.90;;;;;;5053728;28;20230;-58
2022/08/02 04:43:20;;;;;;;5.73;3.70;;;12.20;99.90;;;;;;5052720;28;20257;-59
2022/08/02 04:45:51;;;;;;;6.93;3.93;;;12.20;99.90;;;;;;5053112;28;20234;-59
2022/08/02 04:48:20;;;;;;;6.67;4.23;;;12.30;99.90;;;;;;5053536;28;20275;-59
2022/08/02 04:50:48;;;;;;;5.43;4.00;;;12.40;99.90;;;;;;5053534;28;20226;-61
2022/08/02 04:53:18;;;;;;;7.10;4.00;;;12.50;99.90;;;;;;5058417;28;20234;-59
2022/08/02 04:55:46;;;;;;;6.30;4.20;;;12.70;99.90;;;;;;5051845;28;20369;-58
2022/08/02 04:58:15;;;;;;;6.63;3.90;;;12.90;99.90;;;;;;5053544;28;20727;-59
2022/08/02 05:01:03;;;;;;;9.27;3.83;;;13.00;99.90;;;;;;5053138;28;20238;-59
2022/08/02 05:03:31;;;;;;;6.03;4.07;;;13.30;99.90;;;;;;5053083;28;20243;-58
2022/08/02 05:06:00;;;;;;;4.97;3.50;;;13.50;99.90;;;;;;5053076;28;20230;-59
2022/08/02 05:08:29;;;;;;;8.87;3.93;;;13.50;99.90;;;;;;5048249;28;20327;-58
2022/08/02 05:10:58;;;;;;;7.70;3.83;;;13.60;99.90;;;;;;5052996;28;20313;-58
2022/08/02 05:13:26;;;;;;;5.63;3.50;;;13.70;99.90;;;;;;5052924;28;20231;-57
2022/08/02 05:15:54;;;;;;;5.93;3.37;;;13.80;99.90;;;;;;5052615;28;20317;-58
2022/08/02 05:18:22;;;;;;;6.87;3.57;;;13.90;99.90;;;;;;5033458;28;20759;-58
2022/08/02 05:20:50;;;;;;;4.63;3.27;;;14.10;99.90;;;;;;5047575;28;20263;-58
2022/08/02 05:23:25;;;;;;;6.53;3.30;;;14.20;99.90;;;;;;5058098;28;20687;-58
2022/08/02 05:25:54;;;;;;;5.13;2.90;;;14.30;99.90;;;;;;5052127;28;20235;-57
2022/08/02 05:28:23;;;;;;;5.33;3.27;;;14.30;99.90;;;;;;5052861;28;20234;-58
2022/08/02 05:30:51;;;;;;;7.23;3.20;;;14.50;99.90;;;;;;5052550;28;20322;-58
2022/08/02 05:33:19;;;;;;;7.50;3.23;;;14.70;99.90;;;;;;5052707;28;20306;-58
2022/08/02 05:35:47;;;;;;;8.47;3.00;;;14.90;99.90;;;;;;5052243;28;20239;-57
2022/08/02 05:38:15;;;;;;;9.33;3.43;;;15.10;99.90;;;;;;5051594;28;20743;-57
2022/08/02 05:40:43;;;;;;;4.20;2.70;;;15.40;99.90;;;;;;5052360;28;20246;-57
2022/08/02 05:43:23;;;;;;;5.50;2.90;;;15.60;99.90;;;;;;5049167;28;20216;-57
2022/08/02 05:45:53;;;;;;;8.03;3.20;;;15.80;99.90;;;;;;5047026;28;20327;-57
2022/08/02 05:48:22;;;;;;;6.20;3.10;;;15.80;99.90;;;;;;5046242;28;20242;-60
2022/08/02 05:51:04;;;;;;;7.10;2.90;;;16.00;99.90;;;;;;5046133;28;20268;-57
2022/08/02 05:53:38;;;;;;;4.97;3.00;;;16.00;99.90;;;;;;5056027;28;20318;-57
2022/08/02 05:56:18;;;;;;;7.73;2.93;;;16.10;99.90;;;;;;5052025;28;20265;-56
2022/08/02 05:58:56;;;;;;;4.87;2.47;;;16.30;99.90;;;;;;5052430;28;20281;-58
2022/08/02 06:01:32;;;;;;;5.47;2.70;;;16.50;99.90;;;;;;5052062;28;20231;-58
2022/08/02 06:04:01;;;;;;;7.43;2.73;;;16.70;99.90;;;;;;5051530;28;20663;-57
2022/08/02 06:06:33;;;;;;;5.50;2.63;;;16.90;99.90;;;;;;5050810;28;20220;-57
2022/08/02 06:09:08;;;;;;;7.50;2.43;;;17.00;99.90;;;;;;5051030;28;20354;-57
2022/08/02 06:11:39;;;;;;;6.47;2.43;;;17.30;99.90;;;;;;5052575;28;20307;-57
2022/08/02 06:14:08;;;;;;;5.50;2.20;;;17.50;99.90;;;;;;5052582;28;20711;-58
2022/08/02 06:16:36;;;;;;;6.63;2.37;;;17.70;99.90;;;;;;5052394;28;20276;-57
2022/08/02 06:19:11;;;;;;;7.93;2.20;;;17.80;99.90;;;;;;5052495;28;20232;-57
2022/08/02 06:21:42;;;;;;;5.47;2.40;;;17.80;99.90;;;;;;5051429;28;20289;-57
2022/08/02 06:24:33;;;;;;;5.67;2.07;;;17.80;99.90;;;;;;5054142;28;20564;-57
2022/08/02 06:27:02;;;;;;;5.87;1.80;;;18.00;99.90;;;;;;5052415;28;20228;-57
2022/08/02 06:29:33;;;;;;;6.87;2.50;;;17.90;99.90;;;;;;5052492;28;20307;-57
2022/08/02 06:32:08;;;;;;;4.90;1.93;;;17.70;99.90;;;;;;5051744;28;20251;-57
2022/08/02 06:34:38;;;;;;;6.97;2.30;;;17.60;99.90;;;;;;5055372;28;20264;-57
2022/08/02 06:37:24;;;;;;;7.03;2.70;;;17.80;99.90;;;;;;5055773;28;20672;-58
2022/08/02 06:40:07;;;;;;;5.17;2.00;;;18.20;99.90;;;;;;5055897;28;20323;-58
2022/08/02 06:42:44;;;;;;;6.73;2.27;;;18.40;99.90;;;;;;5055669;28;20234;-58
2022/08/02 06:45:13;;;;;;;5.57;2.03;;;18.60;99.90;;;;;;5056246;28;20321;-58
2022/08/02 06:47:41;;;;;;;5.27;1.80;;;18.80;99.90;;;;;;5055599;28;20696;-58
2022/08/02 06:50:10;;;;;;;5.90;1.73;;;19.00;99.90;;;;;;5056056;28;20657;-58
2022/08/02 06:52:38;;;;;;;3.13;1.43;;;18.90;99.90;;;;;;5060191;28;20236;-58
2022/08/02 06:55:07;;;;;;;8.30;2.10;;;19.10;99.90;;;;;;5054213;28;20341;-57
2022/08/02 06:57:35;;;;;;;8.20;2.13;;;19.00;99.90;;;;;;5054988;28;20241;-58
2022/08/02 07:00:07;;;;;;;5.20;1.60;;;18.90;99.90;;;;;;5055927;28;20233;-58
2022/08/02 07:02:38;;;;;;;5.33;1.70;;;18.90;99.90;;;;;;5055076;28;20233;-57
2022/08/02 07:05:08;;;;;;;7.20;1.60;;;19.30;99.90;;;;;;5055083;28;20322;-58
2022/08/02 07:07:36;;;;;;;6.17;1.70;;;19.60;99.90;;;;;;5055525;28;20271;-58
2022/08/02 07:10:04;;;;;;;7.13;1.70;;;19.60;99.90;;;;;;5054935;28;20240;-58
2022/08/02 07:12:34;;;;;;;6.07;1.53;;;19.90;99.90;;;;;;5055110;28;20260;-57
2022/08/02 07:15:04;;;;;;;5.80;1.70;;;20.00;99.90;;;;;;5055520;28;20690;-58
2022/08/02 07:17:32;;;;;;;7.20;2.10;;;20.00;99.90;;;;;;5054905;28;20239;-58
2022/08/02 07:20:03;;;;;;;9.40;2.03;;;20.20;99.90;;;;;;5037689;28;20262;-57
2022/08/02 07:22:31;;;;;;;4.73;1.60;;;20.40;99.90;;;;;;5041599;28;20246;-58
2022/08/02 07:25:00;;;;;;;4.90;1.60;;;20.70;99.90;;;;;;5056405;28;20649;-58
2022/08/02 07:27:28;;;;;;;8.67;2.00;;;20.80;99.90;;;;;;5054933;28;20266;-58
2022/08/02 07:29:57;;;;;;;7.63;1.73;;;21.00;99.90;;;;;;5054513;28;20223;-58
2022/08/02 07:32:27;;;;;;;4.60;1.60;;;21.10;99.90;;;;;;5054559;28;20258;-57
2022/08/02 07:34:56;;;;;;;5.00;1.83;;;21.20;99.90;;;;;;5055107;28;20306;-58
2022/08/02 07:37:28;;;;;;;5.60;1.43;;;21.50;99.90;;;;;;5055007;28;20698;-58
2022/08/02 07:40:17;;;;;;;7.07;1.93;;;21.70;99.90;;;;;;5054714;28;20235;-57
2022/08/02 07:42:48;;;;;;;4.90;1.80;;;21.80;99.90;;;;;;5054540;28;20242;-58
2022/08/02 07:45:16;;;;;;;5.80;1.80;;;21.90;99.90;;;;;;5054732;28;20247;-58
2022/08/02 07:47:45;;;;;;;6.53;1.67;;;22.00;99.90;;;;;;5054393;28;20228;-58
2022/08/02 07:50:15;;;;;;;7.20;2.00;;;22.30;99.90;;;;;;5054925;28;20238;-58
2022/08/02 07:52:45;;;;;;;7.20;2.07;;;22.50;99.90;;;;;;5059523;28;20242;-57
2022/08/02 07:55:16;;;;;;;6.20;2.07;;;22.60;99.90;;;;;;5046782;28;20244;-58
2022/08/02 07:57:46;;;;;;;8.10;2.00;;;22.60;99.90;;;;;;5054419;28;20250;-58
2022/08/02 08:00:16;;;;;;;3.50;1.60;;;22.70;99.90;;;;;;5053913;28;20224;-58
2022/08/02 08:02:45;;;;;;;7.23;1.93;;;23.00;99.90;;;;;;5054383;28;20575;-56
2022/08/02 08:05:13;;;;;;;7.27;1.77;;;23.00;99.90;;;;;;5054193;28;20228;-58
2022/08/02 08:07:41;;;;;;;7.53;2.10;;;23.20;99.90;;;;;;5054324;28;20324;-58
2022/08/02 08:10:11;;;;;;;7.23;2.10;;;23.70;99.90;;;;;;5053343;28;20258;-58
2022/08/02 08:12:39;;;;;;;5.93;2.00;;;23.90;99.90;;;;;;5053514;28;20609;-57
2022/08/02 08:15:09;;;;;;;10.30;2.00;;;24.10;99.90;;;;;;5054536;28;20281;-58
2022/08/02 08:17:37;;;;;;;5.27;1.80;;;24.20;99.90;;;;;;5053856;28;20683;-58
2022/08/02 08:20:06;;;;;;;5.57;1.97;;;24.20;99.90;;;;;;5054352;28;20696;-57
2022/08/02 08:22:34;;;;;;;5.40;1.60;;;24.40;99.90;;;;;;5057315;28;20329;-58
2022/08/02 08:25:02;;;;;;;5.20;1.60;;;24.30;99.90;;;;;;5054582;28;20223;-58
2022/08/02 08:27:32;;;;;;;6.40;1.93;;;24.10;99.90;;;;;;5051221;28;20231;-58
2022/08/02 08:30:01;;;;;;;8.67;2.33;;;24.10;99.90;;;;;;5054101;28;20228;-58
2022/08/02 08:32:29;;;;;;;7.77;2.07;;;24.00;99.90;;;;;;5053243;28;20236;-57
2022/08/02 08:34:58;;;;;;;4.97;1.50;;;24.10;99.90;;;;;;5053352;28;20232;-58
2022/08/02 08:37:27;;;;;;;10.60;2.37;;;24.20;99.90;;;;;;5052570;28;20255;-57
2022/08/02 08:39:55;;;;;;;7.33;2.37;;;24.40;99.90;;;;;;5052862;28;20223;-57
2022/08/02 08:42:26;;;;;;;7.50;1.93;;;24.50;99.90;;;;;;5052940;28;20598;-56
2022/08/02 08:44:57;;;;;;;5.20;1.90;;;24.60;99.90;;;;;;5053558;28;20290;-58
2022/08/02 08:47:31;;;;;;;6.07;1.70;;;24.80;99.90;;;;;;5053660;28;20319;-57
2022/08/02 08:50:04;;;;;;;8.90;2.30;;;25.10;99.90;;;;;;5053551;28;20230;-57
2022/08/02 08:52:36;;;;;;;6.93;1.70;;;24.90;99.90;;;;;;5056968;28;20326;-57
2022/08/02 08:55:08;;;;;;;5.77;1.80;;;24.90;99.90;;;;;;5053679;28;20239;-58
2022/08/02 08:57:40;;;;;;;5.57;1.87;;;25.10;99.90;;;;;;5053127;28;20266;-58
2022/08/02 09:00:14;;;;;;;8.00;2.00;;;25.20;99.90;;;;;;5053572;28;20690;-58
2022/08/02 09:02:43;;;;;;;8.37;2.10;;;25.30;99.90;;;;;;5052510;28;20634;-58
2022/08/02 09:05:13;;;;;;;5.33;1.80;;;25.00;99.90;;;;;;5053560;28;20286;-57
2022/08/02 09:07:43;;;;;;;4.97;1.70;;;24.90;99.90;;;;;;5053332;28;20237;-58
2022/08/02 09:10:38;;;;;;;5.53;1.80;;;25.00;99.90;;;;;;5053457;28;20243;-58
2022/08/02 09:13:08;;;;;;;4.33;1.53;;;25.40;99.90;;;;;;5053457;28;20226;-57
2022/08/02 09:15:59;;;;;;;6.90;1.50;;;25.60;99.90;;;;;;5053137;28;20231;-58
2022/08/02 09:18:43;;;;;;;5.90;1.37;;;25.90;99.90;;;;;;5053038;28;20598;-58
2022/08/02 09:21:12;;;;;;;4.87;1.80;;;26.00;99.90;;;;;;5052471;28;20559;-57
2022/08/02 09:23:42;;;;;;;3.73;1.40;;;26.10;99.90;;;;;;5057478;28;20236;-58
2022/08/02 09:26:12;;;;;;;4.67;1.63;;;26.20;99.90;;;;;;5053118;28;20752;-57
2022/08/02 09:28:42;;;;;;;5.13;1.90;;;26.40;99.90;;;;;;5052789;28;20225;-58
2022/08/02 09:31:14;;;;;;;4.40;1.30;;;26.70;99.90;;;;;;5052288;28;20746;-58
2022/08/02 09:33:43;;;;;;;4.93;1.63;;;27.00;99.90;;;;;;5044371;28;20246;-57
2022/08/02 09:36:13;;;;;;;5.60;1.80;;;27.10;99.90;;;;;;5045281;28;20258;-58
2022/08/02 09:38:53;;;;;;;5.60;1.60;;;27.10;99.90;;;;;;5051516;28;20721;-58
2022/08/02 09:41:22;;;;;;;4.27;1.40;;;27.10;99.90;;;;;;5047031;28;20310;-56
2022/08/02 09:43:51;;;;;;;4.00;1.47;;;27.00;99.90;;;;;;5053063;28;20642;-57
2022/08/02 09:46:37;;;;;;;6.37;1.40;;;27.10;99.90;;;;;;5052536;28;20293;-58
2022/08/02 09:49:08;;;;;;;4.50;1.40;;;27.50;99.90;;;;;;5053005;28;20231;-58
2022/08/02 09:51:38;;;;;;;4.77;1.77;;;27.90;99.90;;;;;;5052103;28;20231;-57
2022/08/02 09:54:10;;;;;;;5.40;1.50;;;28.10;99.90;;;;;;5056843;28;20254;-58
2022/08/02 09:56:48;;;;;;;4.73;1.40;;;28.30;99.90;;;;;;5052381;28;20284;-58
2022/08/02 09:59:18;;;;;;;3.83;1.70;;;28.40;99.90;;;;;;5052170;28;20280;-57
2022/08/02 10:01:48;;;;;;;5.23;1.23;;;28.10;99.90;;;;;;5052139;28;20332;-58
2022/08/02 10:04:28;;;;;;;3.90;1.20;;;28.30;99.90;;;;;;5052552;28;20247;-58
2022/08/02 10:07:02;;;;;;;5.00;1.30;;;28.50;99.90;;;;;;5051406;28;20269;-57
2022/08/02 10:09:30;;;;;;;4.80;1.37;;;28.70;99.90;;;;;;5056202;28;20234;-58
2022/08/02 10:11:59;;;;;;;5.33;1.50;;;28.90;99.90;;;;;;5056200;28;20265;-57
2022/08/02 10:14:28;;;;;;;5.27;1.50;;;28.90;99.90;;;;;;5056227;28;20228;-58
2022/08/02 10:16:58;;;;;;;5.57;1.47;;;29.10;99.40;;;;;;5056107;28;20318;-58
2022/08/02 10:19:27;;;;;;;3.77;1.10;;;28.90;98.90;;;;;;5055900;28;20259;-58
2022/08/02 10:22:16;;;;;;;4.40;1.20;;;29.00;99.10;;;;;;5057311;28;20223;-58
2022/08/02 10:24:47;;;;;;;4.33;1.30;;;29.00;97.60;;;;;;5054721;28;20315;-58
2022/08/02 10:27:18;;;;;;;5.67;1.30;;;28.70;97.00;;;;;;5055742;28;20298;-58
2022/08/02 10:29:49;;;;;;;4.37;1.43;;;28.90;98.30;;;;;;5055914;28;20235;-58
2022/08/02 10:32:29;;;;;;;4.60;1.30;;;29.00;98.50;;;;;;5055804;28;20249;-58
2022/08/02 10:35:02;;;;;;;5.17;1.33;;;29.20;98.30;;;;;;5056304;28;20230;-58
2022/08/02 10:37:54;;;;;;;4.53;1.60;;;29.10;96.70;;;;;;5041097;28;20584;-58
2022/08/02 10:40:26;;;;;;;3.57;1.30;;;28.70;96.90;;;;;;5036233;28;20244;-57
2022/08/02 10:42:58;;;;;;;4.53;1.30;;;28.90;97.50;;;;;;5054793;28;20248;-58
2022/08/02 10:45:28;;;;;;;5.00;1.83;;;28.90;97.60;;;;;;5056119;28;20315;-58
2022/08/02 10:47:59;;;;;;;3.70;1.50;;;29.00;97.70;;;;;;5056018;28;20688;-58
2022/08/02 10:50:53;;;;;;;5.93;1.63;;;29.10;97.20;;;;;;5055748;28;20316;-58
2022/08/02 10:53:27;;;;;;;5.47;1.63;;;29.20;96.50;;;;;;5060610;28;20711;-58
2022/08/02 10:55:58;;;;;;;3.90;1.40;;;28.80;95.40;;;;;;5055469;28;20259;-59
2022/08/02 10:58:28;;;;;;;3.93;1.50;;;29.10;96.20;;;;;;5055323;28;20289;-58
2022/08/02 11:00:58;;;;;;;4.07;1.47;;;29.40;95.40;;;;;;5055422;28;20316;-57
2022/08/02 11:03:45;;;;;;;3.13;1.17;;;29.30;94.60;;;;;;5055299;28;20228;-56
2022/08/02 11:06:15;;;;;;;6.17;1.57;;;28.90;94.60;;;;;;5049621;28;20314;-57
2022/08/02 11:09:27;;;;;;;5.90;1.60;;;28.60;94.80;;;;;;5055149;28;20638;-57
2022/08/02 11:12:02;;;;;;;4.30;1.37;;;28.80;95.80;;;;;;5055625;28;20231;-57
2022/08/02 11:14:32;;;;;;;6.53;1.90;;;29.20;95.70;;;;;;5055179;28;20314;-56
2022/08/02 11:17:15;;;;;;;4.03;1.40;;;29.20;94.10;;;;;;5055497;28;20226;-57
2022/08/02 11:20:19;;;;;;;3.00;1.13;;;29.30;94.40;;;;;;5054160;28;20314;-57
2022/08/02 11:22:49;;;;;;;4.03;1.20;;;29.70;95.40;;;;;;5057327;28;20234;-57
2022/08/02 11:25:33;;;;;;;3.37;1.03;;;29.80;93.40;;;;;;5053791;28;20262;-57
2022/08/02 11:28:22;;;;;;;3.70;1.40;;;29.60;93.00;;;;;;5053220;28;20567;-57
2022/08/02 11:31:00;;;;;;;3.47;1.10;;;29.30;92.20;;;;;;5034695;28;20600;-57
2022/08/02 11:33:34;;;;;;;3.10;1.00;;;29.00;92.10;;;;;;5041274;28;20233;-57
2022/08/02 11:36:06;;;;;;;2.30;0.90;;;29.00;93.10;;;;;;5053517;28;20228;-57
2022/08/02 11:38:35;;;;;;;4.17;1.40;;;29.20;93.50;;;;;;5054497;28;20254;-57
2022/08/02 11:41:04;;;;;;;3.10;1.00;;;29.50;91.70;;;;;;5053285;28;20232;-57
2022/08/02 11:43:37;;;;;;;3.80;1.20;;;29.30;90.90;;;;;;5054624;28;20235;-57
2022/08/02 11:46:12;;;;;;;2.93;1.20;;;29.30;92.30;;;;;;5054698;28;20282;-57
2022/08/02 11:48:41;;;;;;;3.87;1.00;;;29.70;92.40;;;;;;5054760;28;20223;-57
2022/08/02 11:51:14;;;;;;;4.00;1.10;;;29.80;92.10;;;;;;5054789;28;20231;-57
2022/08/02 11:53:44;;;;;;;5.33;1.43;;;30.00;92.30;;;;;;5053973;28;20243;-57
2022/08/02 11:56:14;;;;;;;5.07;1.23;;;29.90;91.70;;;;;;5046725;28;20246;-57
2022/08/02 11:59:02;;;;;;;2.70;1.17;;;30.00;92.60;;;;;;5054632;28;20736;-56
2022/08/02 12:01:31;;;;;;;4.77;1.30;;;30.30;91.40;;;;;;5053935;28;20259;-57
2022/08/02 12:04:12;;;;;;;4.43;1.07;;;30.10;92.40;;;;;;5054003;28;20274;-57
2022/08/02 12:06:41;;;;;;;3.97;1.40;;;30.10;92.00;;;;;;5054056;28;20275;-57
2022/08/02 12:09:11;;;;;;;4.63;1.13;;;29.90;91.90;;;;;;5054679;28;20260;-57
2022/08/02 12:11:48;;;;;;;3.53;1.30;;;29.70;92.20;;;;;;5054127;28;20232;-56
2022/08/02 12:14:17;;;;;;;3.90;1.23;;;29.60;92.50;;;;;;5054252;28;20228;-57
2022/08/02 12:19:31;;;;;;;4.20;1.43;;;29.40;93.70;;;;;;5053780;28;20216;-57
2022/08/02 12:22:17;;;;;;;3.77;1.37;;;29.30;91.80;;;;;;5053560;28;20319;-57
2022/08/02 12:24:48;;;;;;;3.47;1.33;;;28.90;91.80;;;;;;5046543;28;20659;-57
2022/08/02 12:27:33;;;;;;;3.73;1.10;;;28.70;93.30;;;;;;5054014;28;20220;-58
2022/08/02 12:30:06;;;;;;;3.50;1.30;;;28.60;93.90;;;;;;5053344;28;20224;-57
2022/08/02 12:32:34;;;;;;;3.07;1.40;;;28.60;93.60;;;;;;5052958;28;20326;-57
2022/08/02 12:35:07;;;;;;;3.77;1.40;;;28.60;94.70;;;;;;5053474;28;20307;-57
2022/08/02 12:37:39;;;;;;;2.53;1.27;;;28.90;94.20;;;;;;5053780;28;20327;-57
2022/08/02 12:40:25;;;;;;;3.73;1.53;;;28.70;94.10;;;;;;5053484;28;20224;-56
2022/08/02 12:42:57;;;;;;;4.23;1.30;;;28.80;94.00;;;;;;5052576;28;20238;-57
2022/08/02 12:45:26;;;;;;;3.30;1.17;;;28.80;94.20;;;;;;5053499;28;20228;-55
2022/08/02 12:48:09;;;;;;;3.30;1.17;;;28.80;94.80;;;;;;5053898;28;20700;-56
2022/08/02 12:50:38;;;;;;;4.37;1.50;;;28.80;94.80;;;;;;5053275;28;20224;-57
2022/08/02 12:53:10;;;;;;;3.13;1.13;;;28.90;94.70;;;;;;5058369;28;20706;-57
2022/08/02 12:55:47;;;;;;;4.20;1.50;;;28.80;95.30;;;;;;5053163;28;20561;-57
2022/08/02 12:58:30;;;;;;;2.87;1.23;;;28.50;95.20;;;;;;5053343;28;20270;-57
2022/08/02 13:01:00;;;;;;;1.90;1.10;;;28.50;95.90;;;;;;5052996;28;20744;-57
2022/08/02 13:03:28;;;;;;;2.57;1.37;;;28.70;96.50;;;;;;5053166;28;20255;-57
2022/08/02 13:06:18;;;;;;;3.27;1.40;;;28.60;95.20;;;;;;5046091;28;20556;-57
2022/08/02 13:09:15;;;;;;;3.43;1.40;;;28.50;96.00;;;;;;5053129;28;20224;-58
2022/08/02 13:11:43;;;;;;;4.67;1.60;;;28.30;96.10;;;;;;5053291;28;20690;-57
2022/08/02 13:14:12;;;;;;;4.10;1.47;;;28.30;96.10;;;;;;5053155;28;20223;-58
2022/08/02 13:16:41;;;;;;;3.83;1.40;;;28.20;95.90;;;;;;5053021;28;20280;-57